createdAt,value
2023-04-04T00:04:54.209Z,103208.56
2023-04-04T00:09:51.383Z,103202.41
2023-04-04T00:14:47.960Z,103203.31
2023-04-04T00:19:44.894Z,103204.16
2023-04-04T00:24:42.290Z,103190.97
2023-04-04T00:29:39.000Z,103194.47
2023-04-04T00:34:36.598Z,103190.97
2023-04-04T00:39:34.154Z,103186.56
2023-04-04T00:44:32.379Z,103182.16
2023-04-04T00:49:30.389Z,103176.03
2023-04-04T00:54:27.261Z,103183.00
2023-04-04T00:59:24.265Z,103175.13
2023-04-04T01:04:22.898Z,103167.25
2023-04-04T01:09:22.609Z,103158.50
2023-04-04T01:14:19.453Z,103165.47
2023-04-04T01:19:22.899Z,103158.50
2023-04-04T01:24:24.979Z,103153.22
2023-04-04T01:29:21.942Z,103153.25
2023-04-04T01:35:03.954Z,103146.25
2023-04-04T01:40:06.399Z,103128.75
2023-04-04T01:45:03.191Z,103134.00
2023-04-04T01:50:00.886Z,103139.22
2023-04-04T01:55:00.923Z,103125.22
2023-04-04T02:00:02.714Z,103096.31
2023-04-04T02:05:05.609Z,103084.97
2023-04-04T02:10:02.801Z,103117.44
2023-04-04T02:15:12.171Z,103117.44
2023-04-04T02:20:12.013Z,103108.66
2023-04-04T02:25:09.092Z,103106.94
2023-04-04T02:30:07.520Z,103102.56
2023-04-04T02:35:05.046Z,103103.44
2023-04-04T02:40:08.636Z,103111.28
2023-04-04T02:45:05.759Z,103110.41
2023-04-04T02:50:10.307Z,103113.00
2023-04-04T02:55:07.889Z,103092.84
2023-04-04T03:00:07.155Z,103100.72
2023-04-04T03:05:04.217Z,103109.50
2023-04-04T03:10:03.207Z,103107.75
2023-04-04T03:14:59.995Z,103119.09
2023-04-04T03:19:56.761Z,103112.97
2023-04-04T03:24:53.598Z,103105.97
2023-04-04T03:29:50.826Z,103104.25
2023-04-04T03:34:49.961Z,103100.75
2023-04-04T03:39:47.144Z,103099.00
2023-04-04T03:44:44.022Z,103099.00
2023-04-04T03:49:43.870Z,103103.38
2023-04-04T03:54:42.983Z,103100.75
2023-04-04T03:59:39.747Z,103088.50
2023-04-04T04:04:38.759Z,103085.00
2023-04-04T04:09:37.653Z,103078.00
2023-04-04T04:14:45.058Z,103080.63
2023-04-04T04:19:47.392Z,103085.00
2023-04-04T04:30:41.344Z,103084.09
2023-04-04T04:35:40.095Z,103073.59
2023-04-04T04:40:43.226Z,103081.53
2023-04-04T04:45:44.847Z,103082.38
2023-04-04T04:50:44.693Z,103082.38
2023-04-04T04:55:46.200Z,103077.13
2023-04-04T05:00:43.483Z,103083.22
2023-04-04T05:05:40.434Z,103091.13
2023-04-04T05:10:38.116Z,103085.84
2023-04-04T05:15:35.537Z,103098.97
2023-04-04T05:20:32.608Z,103091.97
2023-04-04T05:25:29.142Z,103093.75
2023-04-04T05:30:26.169Z,103085.00
2023-04-04T05:35:22.691Z,103095.56
2023-04-04T12:47:59.881Z,102857.28
2023-04-04T12:53:18.441Z,102846.53
2023-04-04T14:33:20.721Z,102735.91
2023-04-04T14:38:19.665Z,102732.59
2023-04-04T14:43:21.797Z,102728.41
2023-04-04T14:48:18.827Z,102712.66
2023-04-04T14:53:19.995Z,102707.41
2023-04-04T14:58:18.044Z,102707.22
2023-04-04T15:03:57.624Z,102703.72
2023-04-04T15:08:54.300Z,102706.31
2023-04-04T15:13:54.025Z,102698.44
2023-04-04T15:18:58.861Z,102691.34
2023-04-04T15:23:57.879Z,102702.94
2023-04-04T15:28:55.981Z,102693.34
2023-04-04T15:33:59.377Z,102695.06
2023-04-04T15:38:56.527Z,102671.53
2023-04-04T15:43:53.497Z,102680.28
2023-04-04T15:48:55.166Z,102673.22
2023-04-04T15:53:56.052Z,102668.88
2023-04-04T16:09:13.540Z,102650.41
2023-04-04T16:14:12.307Z,102670.56
2023-04-04T16:19:11.759Z,102667.25
2023-04-04T16:24:09.550Z,102677.03
2023-04-04T16:29:06.399Z,102674.53
2023-04-04T16:34:06.878Z,102664.13
2023-04-04T19:28:31.016Z,102668.94
2023-04-04T19:33:27.857Z,102660.19
2023-04-04T19:38:28.326Z,102664.66
2023-04-04T19:43:27.368Z,102657.75
2023-04-04T19:48:49.846Z,102654.28
2023-04-04T19:53:53.352Z,102661.47
2023-04-04T19:58:58.041Z,102638.81
2023-04-04T20:03:59.256Z,102643.22
2023-04-04T20:08:57.409Z,102650.31
2023-04-04T20:13:56.288Z,102639.84
2023-04-04T20:18:53.274Z,102640.91
2023-04-04T20:23:50.026Z,102656.69
2023-04-04T20:28:46.633Z,102649.00
2023-04-04T20:33:43.730Z,102647.28
2023-04-04T20:38:40.780Z,102664.94
2023-04-04T20:43:38.387Z,102672.09
2023-04-04T20:48:37.750Z,102661.56
2023-04-04T20:53:34.358Z,102671.34
2023-04-04T20:58:31.177Z,102664.38
2023-04-04T21:03:29.300Z,102672.31
2023-04-04T21:08:26.966Z,102663.66
2023-04-04T21:13:36.890Z,102657.56
2023-04-04T21:18:33.767Z,102662.84
2023-04-04T21:23:30.293Z,102658.56
2023-04-04T21:28:32.261Z,102655.09
2023-04-04T21:33:28.884Z,102642.91
2023-04-04T21:38:35.319Z,102646.47
2023-04-04T21:43:31.858Z,102635.13
2023-04-04T21:48:28.409Z,102639.56
2023-04-04T21:53:24.904Z,102636.09
2023-04-04T21:58:21.573Z,102638.78
2023-04-04T22:03:18.124Z,102639.69
2023-04-04T22:08:14.597Z,102633.63
2023-04-04T22:13:14.601Z,102635.44
2023-04-04T22:18:14.694Z,102634.66
2023-04-04T22:23:12.603Z,102624.16
2023-04-04T22:28:09.318Z,102628.56
2023-04-04T22:33:06.036Z,102623.38
2023-04-04T22:38:03.078Z,102616.41
2023-04-04T22:43:00.620Z,102618.19
2023-04-04T22:48:01.948Z,102615.56
2023-04-04T22:52:58.581Z,102611.25
2023-04-04T22:57:55.252Z,102608.69
2023-04-04T23:02:52.013Z,102601.72
2023-04-04T23:07:52.833Z,102604.38
2023-04-04T23:12:49.313Z,102605.31
2023-04-04T23:17:46.551Z,102606.19
2023-04-04T23:22:43.343Z,102601.00
2023-04-04T23:27:40.377Z,102601.03
2023-04-04T23:32:36.861Z,102604.56
2023-04-04T23:37:33.498Z,102601.09
2023-04-04T23:42:29.971Z,102598.47
2023-04-04T23:47:26.551Z,102607.28
2023-04-04T23:52:23.294Z,102600.31
2023-04-04T23:57:19.823Z,102594.22
